AirNav   Free Bose QuietComfort 20
 
 1460 users online  

FL21 Berlin Heliport
Oceanway, Florida, USA

GOING TO OCEANWAY?


FAA INFORMATION EFFECTIVE 05 DECEMBER 2019

Location

FAA Identifier: FL21
Lat/Long: 30-27-46.8580N 081-36-54.3440W
30-27.780967N 081-36.905733W
30.4630161,-81.6150956
(estimated)
Elevation: 20 ft. / 6 m (estimated)
Variation: 03W (1985)
From city: 2 miles E of OCEANWAY, FL
Time zone: UTC -5 (UTC -4 during Daylight Saving Time)
Zip code: 32218

Heliport Operations

Heliport use: Private use. Permission required prior to landing
Activation date: 08/1971
Control tower: no
ARTCC: JACKSONVILLE CENTER
FSS: GAINESVILLE FLIGHT SERVICE STATION
Attendance: CONTINUOUS
Wind indicator: yes
Segmented circle: no

Heliport Communications

UNICOM: 123.075
WX ASOS at JAX (4 nm NW): PHONE 904-741-4304
WX ASOS at CRG (9 nm SE): PHONE 904-646-4670
WX AWOS-3 at FHB (12 nm NE): 118.075 (904-277-7323)
WX AWOS-3 at HEG (15 nm SW): 119.275 (904-695-0334)
WX AWOS-3 at VQQ (20 nm SW): 125.275 (904-778-6934)

Nearby radio navigation aids

VOR radial/distance  VOR name  Freq  Var
CRGr327/9.2CRAIG VORTAC114.5003W
VQQr047/(20.7)CECIL VOR117.9003W
SGJr340/33.8ST AUGUSTINE VOR/DME109.4006W
SSIr198/36.3BRUNSWICK VORTAC109.8004W

 
NDB name  Hdg/Dist  Freq  Var  ID
DINNS097/9.634406WJA .--- .-
REYNOLDS011/29.833807WRYD .-. -.-- -..

Heliport Services

Parking: hangars
Airframe service: NONE
Powerplant service: NONE

Runway Information

Helipad H1

Dimensions: 2000 x 300 ft. / 610 x 91 m
Surface: turf, in fair condition
Operational restrictions: INGRESS/EGRESS ORIENTED N-S.
Latitude: 30-27.780967N
Longitude: 081-36.905733W
Elevation: 20.0 ft.
Traffic pattern: leftleft
Markings: none, in fair condition

Heliport Ownership and Management from official FAA records

Ownership: Privately-owned
Owner: NORMAN EVANS
1132 NEW BERLIN RD
JACKSONVILLE, FL 32218
Manager: Phone 904-757-1335

Heliport Operational Statistics

Aircraft based on the field: 4
Helicopters: 4
    

Additional Remarks

A52-H1 60' TREES 1200' N, BLDG 600' N, AND 70' TREES 1200' S.
FOR CD CTC JACKSONVILLE APCH AT 904-741-0284.

Instrument Procedures

There are no published instrument procedures at FL21.

Some nearby airports with instrument procedures:

KJAX - Jacksonville International Airport (4 nm NW)
KCRG - Jacksonville Executive Airport at Craig (9 nm SE)
KNRB - Mayport Naval Station (Adm David L. McDonald Field) (11 nm SE)
KFHB - Fernandina Beach Municipal Airport (12 nm NE)
KNIP - Jacksonville Naval Air Station (Towers Field) (14 nm S)
KHEG - Herlong Recreational Airport (15 nm SW)
KVQQ - Cecil Airport (20 nm SW)
 
Loc | Ops | Rwys | IFR | FBO | Links
Com | Nav | Svcs | Stats | Notes
Area around FL21 (Berlin Heliport)
 
Road maps at: MapQuest Bing Google
 
Aerial photo
No photo
 
Sectional chart

 
Airport distance calculator
Flying to Berlin Heliport? Find the distance to fly.

From to FL21

Sunrise and sunset
Times for 05-Dec-2019
 Local
(UTC-5)
 Zulu
(UTC)
Morning civil twilight06:4411:44
Sunrise07:1012:10
Sunset17:2422:24
Evening civil twilight17:5122:51

Current date and time
Zulu (UTC)  05-Dec-2019 18:24:38
Local (UTC-5)  05-Dec-2019 13:24:38
 
METAR
KJAX 
4nm NW 
051756Z 34003KT 10SM FEW250 20/01 A3010 RMK AO2 SLP193 T02000006 58011 $
KCRG 
9nm SE 
051753Z 01006KT 10SM CLR 19/01 A3011 RMK AO2 SLP195 T01890011 10189 20050 58010
KNRB 
11nm SE 
051752Z 03010KT 10SM FEW250 18/03 A3011 RMK AO2 SLP195 T01830028 10183 20089 58009 $
KFHB 
12nm NE 
051755Z AUTO 06009KT 10SM CLR 18/01 A3011 RMK AO2 T01820008 10186 20050
KHEG 
15nm SW 
051755Z AUTO 01004KT 7SM CLR 19/01 A3012 RMK AO2
KNIP 
15nm S 
051753Z 02005KT 10SM FEW250 19/00 A3011 RMK AO2 SLP193 T01890000 10194 20089 58013 $
TAF
KJAX 
4nm NW 
051723Z 0518/0618 04007KT P6SM FEW130 SCT250 FM052000 02005KT P6SM FEW250 FM052300 VRB03KT P6SM SKC FM061200 17005KT P6SM FEW100 SCT250
KCRG 
9nm SE 
051723Z 0518/0618 36007KT P6SM FEW130 SCT250 FM052000 04007KT P6SM FEW250 FM052300 VRB03KT P6SM SKC FM061500 19005KT P6SM FEW100 SCT250
KNRB 
11nm SE 
0515/0615 33006KT 9999 FEW150 FEW250 QNH3009INS FM051800 04010KT 9999 SCT250 QNH3004INS FM060000 06005KT 9999 FEW100 FEW250 QNH3010INS T19/0519Z T12/0610Z FN20022
KNIP 
15nm S 
0515/0615 36008KT 9999 FEW150 SCT250 QNH3010INS FM051700 03010KT 9999 FEW150 SCT250 QNH3008INS FM052100 06012KT 9999 FEW120 SCT250 QNH3010INS FM060200 36006KT 9999 FEW100 SCT250 QNH3015INS T21/0520Z T12/0611Z FN20061
NOTAMs
Click for the latest NOTAMs
NOTAMs are issued by the DoD/FAA and will open in a separate window not controlled by AirNav.

 

 
 

Would you like to see your business listed on this page?

 If your business provides an interesting product or service to pilots, flight crews, aircraft, or users of the Berlin Heliport, you should consider listing it here.  To start the listing process, click on the button below
 
Add a business
 

Other Pages about Berlin Heliport

Update a link
 
Copyright © AirNav, LLC. All rights reserved. Privacy Policy  Contact